sensor_id;sensor_type;location;lat;lon;timestamp;pressure;altitude;pressure_sealevel;temperature;humidity
70015;BME280;57358;51.094;6.760;2023-02-11T00:00:39;103121.41;;;4.91;100.00
70015;BME280;57358;51.094;6.760;2023-02-11T00:03:06;103083.91;;;4.70;100.00
70015;BME280;57358;51.094;6.760;2023-02-11T00:05:33;103111.81;;;4.87;100.00
70015;BME280;57358;51.094;6.760;2023-02-11T00:07:59;103117.09;;;4.90;100.00
70015;BME280;57358;51.094;6.760;2023-02-11T00:10:26;103076.09;;;4.70;100.00
70015;BME280;57358;51.094;6.760;2023-02-11T00:12:52;103120.59;;;4.93;100.00
70015;BME280;57358;51.094;6.760;2023-02-11T00:15:18;103048.31;;;4.66;100.00
70015;BME280;57358;51.094;6.760;2023-02-11T00:17:46;103044.03;;;4.73;100.00
70015;BME280;57358;51.094;6.760;2023-02-11T00:20:13;103108.56;;;5.06;100.00
70015;BME280;57358;51.094;6.760;2023-02-11T00:22:39;103108.53;;;5.05;100.00
70015;BME280;57358;51.094;6.760;2023-02-11T00:25:06;103100.78;;;5.08;100.00
70015;BME280;57358;51.094;6.760;2023-02-11T00:27:32;103045.78;;;4.69;100.00
70015;BME280;57358;51.094;6.760;2023-02-11T00:29:59;103110.38;;;5.13;100.00
70015;BME280;57358;51.094;6.760;2023-02-11T00:32:27;103038.84;;;4.70;100.00
70015;BME280;57358;51.094;6.760;2023-02-11T00:34:53;102817.50;;;3.46;100.00
70015;BME280;57358;51.094;6.760;2023-02-11T00:37:21;103103.38;;;5.08;100.00
70015;BME280;57358;51.094;6.760;2023-02-11T00:39:48;103058.81;;;4.77;100.00
70015;BME280;57358;51.094;6.760;2023-02-11T00:42:15;103013.47;;;4.49;100.00
70015;BME280;57358;51.094;6.760;2023-02-11T00:44:42;103063.22;;;4.79;100.00
70015;BME280;57358;51.094;6.760;2023-02-11T00:47:08;103009.84;;;4.34;100.00
70015;BME280;57358;51.094;6.760;2023-02-11T00:49:35;103072.53;;;4.60;100.00
70015;BME280;57358;51.094;6.760;2023-02-11T00:52:02;103023.66;;;4.27;100.00
70015;BME280;57358;51.094;6.760;2023-02-11T00:54:28;103060.13;;;4.36;100.00
70015;BME280;57358;51.094;6.760;2023-02-11T00:56:55;103035.06;;;4.42;100.00
70015;BME280;57358;51.094;6.760;2023-02-11T00:59:21;103059.44;;;4.51;100.00
70015;BME280;57358;51.094;6.760;2023-02-11T01:01:48;103050.66;;;4.42;100.00
70015;BME280;57358;51.094;6.760;2023-02-11T01:04:14;102947.69;;;3.78;100.00
70015;BME280;57358;51.094;6.760;2023-02-11T01:06:41;103067.84;;;4.30;100.00
70015;BME280;57358;51.094;6.760;2023-02-11T01:09:08;102800.28;;;2.84;100.00
70015;BME280;57358;51.094;6.760;2023-02-11T01:11:34;103070.63;;;4.44;100.00
70015;BME280;57358;51.094;6.760;2023-02-11T01:14:01;103083.56;;;4.39;100.00
70015;BME280;57358;51.094;6.760;2023-02-11T01:16:27;102924.91;;;3.54;100.00
70015;BME280;57358;51.094;6.760;2023-02-11T01:18:54;102915.28;;;3.47;100.00
70015;BME280;57358;51.094;6.760;2023-02-11T01:21:20;103063.53;;;4.29;100.00
70015;BME280;57358;51.094;6.760;2023-02-11T01:23:47;102918.75;;;3.49;100.00
70015;BME280;57358;51.094;6.760;2023-02-11T01:26:13;103015.38;;;3.90;100.00
70015;BME280;57358;51.094;6.760;2023-02-11T01:28:40;103064.28;;;4.19;100.00
70015;BME280;57358;51.094;6.760;2023-02-11T01:31:07;103040.63;;;3.99;100.00
70015;BME280;57358;51.094;6.760;2023-02-11T01:33:33;103071.19;;;4.20;100.00
70015;BME280;57358;51.094;6.760;2023-02-11T01:36:02;103029.34;;;3.98;100.00
70015;BME280;57358;51.094;6.760;2023-02-11T01:38:29;103074.69;;;4.22;100.00
70015;BME280;57358;51.094;6.760;2023-02-11T01:40:59;103071.97;;;4.13;100.00
70015;BME280;57358;51.094;6.760;2023-02-11T01:43:29;103061.66;;;4.17;100.00
70015;BME280;57358;51.094;6.760;2023-02-11T01:46:22;103082.63;;;4.31;100.00
70015;BME280;57358;51.094;6.760;2023-02-11T01:51:31;103053.81;;;4.14;100.00
70015;BME280;57358;51.094;6.760;2023-02-11T01:54:00;103080.91;;;4.33;100.00
70015;BME280;57358;51.094;6.760;2023-02-11T01:56:48;103083.56;;;4.38;100.00
70015;BME280;57358;51.094;6.760;2023-02-11T02:05:38;102999.22;;;4.11;100.00
70015;BME280;57358;51.094;6.760;2023-02-11T02:10:52;103069.13;;;4.63;100.00
70015;BME280;57358;51.094;6.760;2023-02-11T02:13:22;102988.81;;;4.13;100.00
70015;BME280;57358;51.094;6.760;2023-02-11T02:16:09;102832.88;;;3.29;100.00
70015;BME280;57358;51.094;6.760;2023-02-11T02:18:58;103047.31;;;4.55;100.00
70015;BME280;57358;51.094;6.760;2023-02-11T02:27:34;103050.16;;;4.73;100.00
70015;BME280;57358;51.094;6.760;2023-02-11T02:38:32;102969.19;;;4.39;100.00
70015;BME280;57358;51.094;6.760;2023-02-11T02:41:07;102997.97;;;4.58;100.00
70015;BME280;57358;51.094;6.760;2023-02-11T02:43:40;103035.47;;;4.80;100.00
70015;BME280;57358;51.094;6.760;2023-02-11T02:48:37;102999.69;;;4.59;100.00
70015;BME280;57358;51.094;6.760;2023-02-11T02:56:56;103012.94;;;4.84;100.00
70015;BME280;57358;51.094;6.760;2023-02-11T02:59:46;103018.16;;;4.84;100.00
70015;BME280;57358;51.094;6.760;2023-02-11T03:02:26;103001.53;;;4.71;100.00
70015;BME280;57358;51.094;6.760;2023-02-11T03:05:17;103018.16;;;4.84;100.00
70015;BME280;57358;51.094;6.760;2023-02-11T03:07:56;102953.66;;;4.49;100.00
70015;BME280;57358;51.094;6.760;2023-02-11T03:10:25;103008.66;;;4.89;100.00
70015;BME280;57358;51.094;6.760;2023-02-11T03:12:54;102932.81;;;4.43;100.00
70015;BME280;57358;51.094;6.760;2023-02-11T03:15:25;102926.66;;;4.34;100.00
70015;BME280;57358;51.094;6.760;2023-02-11T03:17:54;102830.72;;;3.69;100.00
70015;BME280;57358;51.094;6.760;2023-02-11T03:20:22;103027.75;;;4.92;100.00
70015;BME280;57358;51.094;6.760;2023-02-11T03:22:53;102969.41;;;4.61;100.00
70015;BME280;57358;51.094;6.760;2023-02-11T03:25:28;103011.28;;;4.95;100.00
70015;BME280;57358;51.094;6.760;2023-02-11T03:28:06;102951.13;;;4.55;100.00
70015;BME280;57358;51.094;6.760;2023-02-11T03:30:42;102974.72;;;4.73;100.00
70015;BME280;57358;51.094;6.760;2023-02-11T03:33:26;102913.75;;;4.44;100.00
70015;BME280;57358;51.094;6.760;2023-02-11T03:36:02;102977.38;;;4.79;100.00
70015;BME280;57358;51.094;6.760;2023-02-11T03:38:34;102948.56;;;4.58;100.00
70015;BME280;57358;51.094;6.760;2023-02-11T03:41:04;102980.91;;;4.89;100.00
70015;BME280;57358;51.094;6.760;2023-02-11T03:43:33;102976.59;;;4.93;100.00
70015;BME280;57358;51.094;6.760;2023-02-11T03:46:01;102943.41;;;4.61;100.00
70015;BME280;57358;51.094;6.760;2023-02-11T03:48:40;102981.81;;;4.96;100.00
70015;BME280;57358;51.094;6.760;2023-02-11T03:51:10;102988.75;;;4.94;100.00
70015;BME280;57358;51.094;6.760;2023-02-11T03:53:40;102989.59;;;4.90;100.00
70015;BME280;57358;51.094;6.760;2023-02-11T03:56:13;102978.28;;;4.83;100.00
70015;BME280;57358;51.094;6.760;2023-02-11T03:58:45;102997.41;;;4.90;100.00
70015;BME280;57358;51.094;6.760;2023-02-11T04:01:15;102925.88;;;4.42;100.00
70015;BME280;57358;51.094;6.760;2023-02-11T04:03:42;102989.53;;;4.84;100.00
70015;BME280;57358;51.094;6.760;2023-02-11T04:06:08;103009.56;;;4.92;100.00
70015;BME280;57358;51.094;6.760;2023-02-11T04:08:34;102990.44;;;4.89;100.00
70015;BME280;57358;51.094;6.760;2023-02-11T04:11:01;102967.78;;;4.74;100.00
70015;BME280;57358;51.094;6.760;2023-02-11T04:13:27;102961.69;;;4.73;100.00
70015;BME280;57358;51.094;6.760;2023-02-11T04:15:54;102963.44;;;4.76;100.00
70015;BME280;57358;51.094;6.760;2023-02-11T04:18:20;102900.78;;;4.45;100.00
70015;BME280;57358;51.094;6.760;2023-02-11T04:20:48;102960.84;;;4.74;100.00
70015;BME280;57358;51.094;6.760;2023-02-11T04:23:15;102977.44;;;4.90;100.00
70015;BME280;57358;51.094;6.760;2023-02-11T04:25:42;102967.94;;;4.94;100.00
70015;BME280;57358;51.094;6.760;2023-02-11T04:28:08;102869.44;;;4.30;100.00
70015;BME280;57358;51.094;6.760;2023-02-11T04:30:34;102987.03;;;4.96;100.00
70015;BME280;57358;51.094;6.760;2023-02-11T04:33:01;102994.84;;;4.96;100.00
70015;BME280;57358;51.094;6.760;2023-02-11T04:35:27;102830.22;;;4.04;100.00
70015;BME280;57358;51.094;6.760;2023-02-11T04:37:54;102857.16;;;4.13;100.00
70015;BME280;57358;51.094;6.760;2023-02-11T04:40:20;102885.13;;;4.40;100.00
70015;BME280;57358;51.094;6.760;2023-02-11T04:42:47;102901.69;;;4.52;100.00
70015;BME280;57358;51.094;6.760;2023-02-11T04:45:13;102967.88;;;4.88;100.00
70015;BME280;57358;51.094;6.760;2023-02-11T04:47:39;102949.56;;;4.77;100.00
70015;BME280;57358;51.094;6.760;2023-02-11T04:50:06;102938.28;;;4.73;100.00
70015;BME280;57358;51.094;6.760;2023-02-11T04:52:32;102912.13;;;4.56;100.00
70015;BME280;57358;51.094;6.760;2023-02-11T04:54:59;102886.00;;;4.39;100.00
70015;BME280;57358;51.094;6.760;2023-02-11T04:57:25;102967.84;;;4.85;100.00
70015;BME280;57358;51.094;6.760;2023-02-11T04:59:52;102980.13;;;4.98;100.00
70015;BME280;57358;51.094;6.760;2023-02-11T05:02:18;102899.94;;;4.49;100.00
70015;BME280;57358;51.094;6.760;2023-02-11T05:04:45;102872.97;;;4.38;100.00
70015;BME280;57358;51.094;6.760;2023-02-11T05:07:11;102953.94;;;4.78;100.00
70015;BME280;57358;51.094;6.760;2023-02-11T05:09:38;102963.56;;;4.88;100.00
70015;BME280;57358;51.094;6.760;2023-02-11T05:12:04;102954.84;;;4.82;100.00
70015;BME280;57358;51.094;6.760;2023-02-11T05:14:30;102964.47;;;4.95;100.00
70015;BME280;57358;51.094;6.760;2023-02-11T05:16:57;102925.28;;;4.72;100.00
70015;BME280;57358;51.094;6.760;2023-02-11T05:19:24;102935.75;;;4.83;100.00
70015;BME280;57358;51.094;6.760;2023-02-11T05:21:50;102930.50;;;4.76;100.00
70015;BME280;57358;51.094;6.760;2023-02-11T05:24:30;102910.53;;;4.72;100.00
70015;BME280;57358;51.094;6.760;2023-02-11T05:26:56;102968.00;;;5.02;100.00
70015;BME280;57358;51.094;6.760;2023-02-11T05:29:22;102931.44;;;4.83;100.00
70015;BME280;57358;51.094;6.760;2023-02-11T05:31:49;102884.34;;;4.51;100.00
70015;BME280;57358;51.094;6.760;2023-02-11T05:34:15;102948.00;;;4.99;100.00
70015;BME280;57358;51.094;6.760;2023-02-11T05:36:42;102908.84;;;4.79;100.00
70015;BME280;57358;51.094;6.760;2023-02-11T05:39:08;102955.81;;;4.99;100.00
70015;BME280;57358;51.094;6.760;2023-02-11T05:41:38;102943.69;;;5.01;100.00
70015;BME280;57358;51.094;6.760;2023-02-11T05:44:04;102945.41;;;4.99;100.00
70015;BME280;57358;51.094;6.760;2023-02-11T05:46:31;102869.63;;;4.53;100.00
70015;BME280;57358;51.094;6.760;2023-02-11T05:48:57;102800.81;;;4.11;100.00
70015;BME280;57358;51.094;6.760;2023-02-11T05:51:24;102925.34;;;4.84;100.00
70015;BME280;57358;51.094;6.760;2023-02-11T05:53:50;102854.81;;;4.39;100.00
70015;BME280;57358;51.094;6.760;2023-02-11T05:56:17;102932.41;;;5.00;100.00
70015;BME280;57358;51.094;6.760;2023-02-11T05:59:13;102935.00;;;5.00;100.00
70015;BME280;57358;51.094;6.760;2023-02-11T06:01:42;102862.75;;;4.59;100.00
70015;BME280;57358;51.094;6.760;2023-02-11T06:04:08;102866.31;;;4.69;100.00
70015;BME280;57358;51.094;6.760;2023-02-11T06:06:35;102816.66;;;4.35;100.00
70015;BME280;57358;51.094;6.760;2023-02-11T06:09:02;102922.88;;;4.99;100.00
70015;BME280;57358;51.094;6.760;2023-02-11T06:11:29;102925.47;;;4.99;100.00
70015;BME280;57358;51.094;6.760;2023-02-11T06:13:56;102877.53;;;4.65;100.00
70015;BME280;57358;51.094;6.760;2023-02-11T06:16:23;102908.88;;;4.82;100.00
70015;BME280;57358;51.094;6.760;2023-02-11T06:18:49;102894.09;;;4.78;100.00
70015;BME280;57358;51.094;6.760;2023-02-11T06:21:16;102860.16;;;4.59;100.00
70015;BME280;57358;51.094;6.760;2023-02-11T06:24:11;102932.38;;;4.94;100.00
70015;BME280;57358;51.094;6.760;2023-02-11T06:26:38;102915.84;;;4.83;100.00
70015;BME280;57358;51.094;6.760;2023-02-11T06:29:04;102818.25;;;4.21;100.00
70015;BME280;57358;51.094;6.760;2023-02-11T06:31:31;102930.66;;;4.93;100.00
70015;BME280;57358;51.094;6.760;2023-02-11T06:33:58;102928.09;;;4.99;100.00
70015;BME280;57358;51.094;6.760;2023-02-11T06:36:24;102927.25;;;5.04;100.00
70015;BME280;57358;51.094;6.760;2023-02-11T06:38:53;102831.50;;;4.53;100.00
70015;BME280;57358;51.094;6.760;2023-02-11T06:41:20;102911.59;;;5.00;100.00
70015;BME280;57358;51.094;6.760;2023-02-11T06:43:48;102885.47;;;4.84;100.00
70015;BME280;57358;51.094;6.760;2023-02-11T06:46:15;102900.25;;;4.91;100.00
70015;BME280;57358;51.094;6.760;2023-02-11T06:49:13;102893.25;;;4.82;100.00
70015;BME280;57358;51.094;6.760;2023-02-11T06:51:40;102914.97;;;4.89;100.00
70015;BME280;57358;51.094;6.760;2023-02-11T06:54:07;102903.72;;;4.90;100.00
70015;BME280;57358;51.094;6.760;2023-02-11T06:56:33;102827.03;;;4.34;100.00
70015;BME280;57358;51.094;6.760;2023-02-11T06:59:28;102683.50;;;3.58;100.00
70015;BME280;57358;51.094;6.760;2023-02-11T07:01:54;102931.56;;;5.05;100.00
70015;BME280;57358;51.094;6.760;2023-02-11T07:04:21;102906.28;;;4.87;100.00
70015;BME280;57358;51.094;6.760;2023-02-11T07:06:47;102909.84;;;4.96;100.00
70015;BME280;57358;51.094;6.760;2023-02-11T07:09:42;102850.56;;;4.54;100.00
70015;BME280;57358;51.094;6.760;2023-02-11T07:12:10;102926.34;;;5.03;100.00
70015;BME280;57358;51.094;6.760;2023-02-11T07:14:36;102817.53;;;4.37;100.00
70015;BME280;57358;51.094;6.760;2023-02-11T07:17:03;102922.88;;;4.99;100.00
70015;BME280;57358;51.094;6.760;2023-02-11T07:19:58;102923.75;;;5.00;100.00
70015;BME280;57358;51.094;6.760;2023-02-11T07:22:24;102874.97;;;4.73;100.00
70015;BME280;57358;51.094;6.760;2023-02-11T07:24:51;102910.69;;;4.94;100.00
70015;BME280;57358;51.094;6.760;2023-02-11T07:27:17;102771.41;;;4.12;100.00
70015;BME280;57358;51.094;6.760;2023-02-11T07:29:44;102928.06;;;5.01;100.00
70015;BME280;57358;51.094;6.760;2023-02-11T07:32:12;102828.81;;;4.43;100.00
70015;BME280;57358;51.094;6.760;2023-02-11T07:34:39;102940.28;;;5.08;100.00
70015;BME280;57358;51.094;6.760;2023-02-11T07:37:05;102866.22;;;4.60;100.00
70015;BME280;57358;51.094;6.760;2023-02-11T07:39:32;102964.56;;;5.07;100.00
70015;BME280;57358;51.094;6.760;2023-02-11T07:41:58;102890.63;;;4.77;100.00
70015;BME280;57358;51.094;6.760;2023-02-11T07:44:25;102916.75;;;4.94;100.00
70015;BME280;57358;51.094;6.760;2023-02-11T07:46:52;102850.63;;;4.60;100.00
70015;BME280;57358;51.094;6.760;2023-02-11T07:49:18;102930.75;;;5.07;100.00
70015;BME280;57358;51.094;6.760;2023-02-11T07:51:44;102936.75;;;5.00;100.00
70015;BME280;57358;51.094;6.760;2023-02-11T07:54:12;102892.34;;;4.75;100.00
70015;BME280;57358;51.094;6.760;2023-02-11T07:56:38;102950.72;;;5.11;100.00
70015;BME280;57358;51.094;6.760;2023-02-11T07:59:05;102936.72;;;4.97;100.00
70015;BME280;57358;51.094;6.760;2023-02-11T08:01:32;102952.47;;;5.14;100.00
70015;BME280;57358;51.094;6.760;2023-02-11T08:03:59;102923.72;;;4.97;100.00
70015;BME280;57358;51.094;6.760;2023-02-11T08:06:53;102874.09;;;4.71;100.00
70015;BME280;57358;51.094;6.760;2023-02-11T08:09:24;102926.38;;;5.05;100.00
70015;BME280;57358;51.094;6.760;2023-02-11T08:11:50;102947.31;;;5.20;100.00
70015;BME280;57358;51.094;6.760;2023-02-11T08:14:17;102936.84;;;5.09;100.00
70015;BME280;57358;51.094;6.760;2023-02-11T08:16:43;102702.78;;;3.85;100.00
70015;BME280;57358;51.094;6.760;2023-02-11T08:19:13;102888.09;;;4.88;100.00
70015;BME280;57358;51.094;6.760;2023-02-11T08:21:40;102844.56;;;4.61;100.00
70015;BME280;57358;51.094;6.760;2023-02-11T08:24:08;102935.19;;;5.27;100.00
70015;BME280;57358;51.094;6.760;2023-02-11T08:26:35;102934.34;;;5.31;100.00
70015;BME280;57358;51.094;6.760;2023-02-11T08:29:12;102833.34;;;4.73;100.00
70015;BME280;57358;51.094;6.760;2023-02-11T08:32:07;102910.84;;;5.18;100.00
70015;BME280;57358;51.094;6.760;2023-02-11T08:34:35;102897.72;;;5.03;100.00
70015;BME280;57358;51.094;6.760;2023-02-11T08:37:02;102942.22;;;5.43;100.00
70015;BME280;57358;51.094;6.760;2023-02-11T08:39:29;102882.16;;;5.06;100.00
70015;BME280;57358;51.094;6.760;2023-02-11T08:42:23;102847.34;;;4.86;100.00
70015;BME280;57358;51.094;6.760;2023-02-11T08:44:50;102921.34;;;5.34;100.00
70015;BME280;57358;51.094;6.760;2023-02-11T08:47:16;102923.06;;;5.35;100.00
70015;BME280;57358;51.094;6.760;2023-02-11T08:49:42;102930.03;;;5.31;100.00
70015;BME280;57358;51.094;6.760;2023-02-11T08:52:36;102952.72;;;5.55;100.00
70015;BME280;57358;51.094;6.760;2023-02-11T08:55:03;102717.69;;;4.12;100.00
70015;BME280;57358;51.094;6.760;2023-02-11T08:57:30;102890.88;;;5.16;100.00
70015;BME280;57358;51.094;6.760;2023-02-11T08:59:56;102895.22;;;5.18;100.00
70015;BME280;57358;51.094;6.760;2023-02-11T09:02:26;102965.75;;;5.60;100.00
70015;BME280;57358;51.094;6.760;2023-02-11T09:04:52;102956.97;;;5.38;100.00
70015;BME280;57358;51.094;6.760;2023-02-11T09:07:18;102921.34;;;5.29;100.00
70015;BME280;57358;51.094;6.760;2023-02-11T09:09:45;102979.69;;;5.64;100.00
70015;BME280;57358;51.094;6.760;2023-02-11T09:12:11;102983.16;;;5.66;100.00
70015;BME280;57358;51.094;6.760;2023-02-11T09:14:38;102983.97;;;5.57;100.00
70015;BME280;57358;51.094;6.760;2023-02-11T09:17:04;102989.25;;;5.72;100.00
70015;BME280;57358;51.094;6.760;2023-02-11T09:19:31;102984.03;;;5.68;100.00
70015;BME280;57358;51.094;6.760;2023-02-11T09:21:58;102957.97;;;5.62;100.00
70015;BME280;57358;51.094;6.760;2023-02-11T09:24:24;102988.44;;;5.87;100.00
70015;BME280;57358;51.094;6.760;2023-02-11T09:26:51;102957.13;;;5.70;100.00
70015;BME280;57358;51.094;6.760;2023-02-11T09:29:17;102971.84;;;5.57;100.00
70015;BME280;57358;51.094;6.760;2023-02-11T09:31:43;102912.59;;;5.21;100.00
70015;BME280;57358;51.094;6.760;2023-02-11T09:34:10;102972.69;;;5.61;100.00
70015;BME280;57358;51.094;6.760;2023-02-11T09:36:39;102994.47;;;5.71;100.00
70015;BME280;57358;51.094;6.760;2023-02-11T09:39:15;102981.44;;;5.69;100.00
70015;BME280;57358;51.094;6.760;2023-02-11T09:44:31;103000.59;;;5.80;100.00
70015;BME280;57358;51.094;6.760;2023-02-11T09:47:04;103002.34;;;5.82;100.00
70015;BME280;57358;51.094;6.760;2023-02-11T09:49:40;102998.00;;;5.85;100.00
70015;BME280;57358;51.094;6.760;2023-02-11T09:52:18;102998.03;;;5.93;100.00
70015;BME280;57358;51.094;6.760;2023-02-11T09:54:54;103024.94;;;5.89;100.00
70015;BME280;57358;51.094;6.760;2023-02-11T09:57:25;103010.19;;;5.88;100.00
70015;BME280;57358;51.094;6.760;2023-02-11T09:59:55;103010.13;;;5.78;100.00
70015;BME280;57358;51.094;6.760;2023-02-11T10:02:29;102988.38;;;5.66;100.00
70015;BME280;57358;51.094;6.760;2023-02-11T10:05:24;103023.22;;;5.88;100.00
70015;BME280;57358;51.094;6.760;2023-02-11T10:10:53;103025.81;;;5.86;100.00
70015;BME280;57358;51.094;6.760;2023-02-11T10:16:57;102945.75;;;5.53;100.00
70015;BME280;57358;51.094;6.760;2023-02-11T10:22:14;102987.50;;;5.64;100.00
70015;BME280;57358;51.094;6.760;2023-02-11T10:24:53;103047.69;;;6.10;100.00
70015;BME280;57358;51.094;6.760;2023-02-11T10:27:30;103045.97;;;6.18;100.00
70015;BME280;57358;51.094;6.760;2023-02-11T10:30:10;102993.66;;;5.79;100.00
70015;BME280;57358;51.094;6.760;2023-02-11T10:32:47;102991.84;;;5.68;100.00
70015;BME280;57358;51.094;6.760;2023-02-11T10:35:18;103031.13;;;6.05;100.00
70015;BME280;57358;51.094;6.760;2023-02-11T10:38:14;102979.72;;;5.74;100.00
70015;BME280;57358;51.094;6.760;2023-02-11T10:40:43;103050.31;;;6.16;100.00
70015;BME280;57358;51.094;6.760;2023-02-11T10:43:13;103048.59;;;6.18;100.00
70015;BME280;57358;51.094;6.760;2023-02-11T10:46:14;103052.06;;;6.20;100.00
70015;BME280;57358;51.094;6.760;2023-02-11T10:48:48;103052.94;;;6.21;100.00
70015;BME280;57358;51.094;6.760;2023-02-11T10:51:21;103048.56;;;6.13;100.00
70015;BME280;57358;51.094;6.760;2023-02-11T10:56:34;103059.00;;;6.18;100.00
70015;BME280;57358;51.094;6.760;2023-02-11T11:01:46;103041.59;;;6.17;100.00
70015;BME280;57358;51.094;6.760;2023-02-11T11:04:32;103050.28;;;6.14;100.00
70015;BME280;57358;51.094;6.760;2023-02-11T11:07:20;102994.56;;;5.91;100.00
70015;BME280;57358;51.094;6.760;2023-02-11T11:09:56;103022.50;;;6.12;100.00
70015;BME280;57358;51.094;6.760;2023-02-11T11:14:56;103032.94;;;6.21;100.00
70015;BME280;57358;51.094;6.760;2023-02-11T11:17:23;103052.09;;;6.28;100.00
70015;BME280;57358;51.094;6.760;2023-02-11T11:22:41;103035.47;;;6.07;100.00
70015;BME280;57358;51.094;6.760;2023-02-11T11:25:21;103061.66;;;6.33;100.00
70015;BME280;57358;51.094;6.760;2023-02-11T11:27:49;103053.84;;;6.33;100.00
70015;BME280;57358;51.094;6.760;2023-02-11T11:30:17;103024.19;;;6.11;100.00
70015;BME280;57358;51.094;6.760;2023-02-11T11:32:44;103024.22;;;6.19;100.00
70015;BME280;57358;51.094;6.760;2023-02-11T11:35:22;103049.47;;;6.31;100.00
70015;BME280;57358;51.094;6.760;2023-02-11T11:37:55;103023.38;;;6.25;100.00
70015;BME280;57358;51.094;6.760;2023-02-11T11:40:32;103052.13;;;6.35;100.00
70015;BME280;57358;51.094;6.760;2023-02-11T11:45:39;103057.38;;;6.57;100.00
70015;BME280;57358;51.094;6.760;2023-02-11T11:48:25;102993.81;;;6.18;100.00
70015;BME280;57358;51.094;6.760;2023-02-11T11:50:56;103022.53;;;6.24;100.00
70015;BME280;57358;51.094;6.760;2023-02-11T11:53:35;103043.44;;;6.39;100.00
70015;BME280;57358;51.094;6.760;2023-02-11T11:56:05;103041.69;;;6.37;100.00
70015;BME280;57358;51.094;6.760;2023-02-11T11:58:34;102979.00;;;6.06;100.00
70015;BME280;57358;51.094;6.760;2023-02-11T12:01:14;103051.28;;;6.50;100.00
70015;BME280;57358;51.094;6.760;2023-02-11T12:15:35;102970.38;;;6.24;100.00
70015;BME280;57358;51.094;6.760;2023-02-11T12:18:35;103040.88;;;6.73;100.00
70015;BME280;57358;51.094;6.760;2023-02-11T12:21:11;103047.84;;;6.67;100.00
70015;BME280;57358;51.094;6.760;2023-02-11T12:26:16;103056.53;;;6.58;100.00
70015;BME280;57358;51.094;6.760;2023-02-11T12:31:52;103063.47;;;6.48;100.00
70015;BME280;57358;51.094;6.760;2023-02-11T12:37:36;103036.47;;;6.32;100.00
70015;BME280;57358;51.094;6.760;2023-02-11T12:58:56;103047.81;;;6.48;100.00
70015;BME280;57358;51.094;6.760;2023-02-11T13:01:28;102996.47;;;6.36;100.00
70015;BME280;57358;51.094;6.760;2023-02-11T13:06:58;103040.00;;;6.59;100.00
70015;BME280;57358;51.094;6.760;2023-02-11T13:09:51;103034.78;;;6.61;100.00
70015;BME280;57358;51.094;6.760;2023-02-11T13:12:20;103035.69;;;6.66;100.00
70015;BME280;57358;51.094;6.760;2023-02-11T13:15:12;103002.56;;;6.32;100.00
70015;BME280;57358;51.094;6.760;2023-02-11T13:17:46;103025.19;;;6.46;100.00
70015;BME280;57358;51.094;6.760;2023-02-11T13:23:21;103039.16;;;6.68;100.00
70015;BME280;57358;51.094;6.760;2023-02-11T13:25:58;103008.69;;;6.53;100.00
70015;BME280;57358;51.094;6.760;2023-02-11T13:31:32;103028.72;;;6.60;100.00
70015;BME280;57358;51.094;6.760;2023-02-11T13:33:59;102984.31;;;6.49;100.00
70015;BME280;57358;51.094;6.760;2023-02-11T13:36:28;103018.28;;;6.72;100.00
70015;BME280;57358;51.094;6.760;2023-02-11T13:39:03;103007.84;;;6.62;100.00
70015;BME280;57358;51.094;6.760;2023-02-11T13:41:38;103009.56;;;6.61;100.00
70015;BME280;57358;51.094;6.760;2023-02-11T13:47:04;103030.47;;;6.87;100.00
70015;BME280;57358;51.094;6.760;2023-02-11T13:49:34;103000.03;;;6.62;100.00
70015;BME280;57358;51.094;6.760;2023-02-11T13:52:14;103034.81;;;6.93;100.00
70015;BME280;57358;51.094;6.760;2023-02-11T13:54:46;102915.63;;;6.32;100.00
70015;BME280;57358;51.094;6.760;2023-02-11T13:57:24;103037.44;;;7.13;100.00
70015;BME280;57358;51.094;6.760;2023-02-11T13:59:54;103036.56;;;7.17;100.00
70015;BME280;57358;51.094;6.760;2023-02-11T14:13:29;103033.94;;;7.43;100.00
70015;BME280;57358;51.094;6.760;2023-02-11T14:16:13;103020.00;;;7.47;100.00
70015;BME280;57358;51.094;6.760;2023-02-11T14:21:18;103031.28;;;7.71;100.00
70015;BME280;57358;51.094;6.760;2023-02-11T14:23:45;102958.25;;;7.03;100.00
70015;BME280;57358;51.094;6.760;2023-02-11T14:29:02;103038.28;;;7.47;100.00
70015;BME280;57358;51.094;6.760;2023-02-11T14:31:48;103028.72;;;7.43;100.00
70015;BME280;57358;51.094;6.760;2023-02-11T14:34:41;103033.94;;;7.46;100.00
70015;BME280;57358;51.094;6.760;2023-02-11T14:42:36;102993.00;;;7.44;100.00
70015;BME280;57358;51.094;6.760;2023-02-11T14:45:06;103036.50;;;7.72;100.00
70015;BME280;57358;51.094;6.760;2023-02-11T14:47:42;103043.44;;;7.81;100.00
70015;BME280;57358;51.094;6.760;2023-02-11T14:50:18;103044.34;;;7.65;100.00
70015;BME280;57358;51.094;6.760;2023-02-11T14:52:47;103026.13;;;7.40;100.00
70015;BME280;57358;51.094;6.760;2023-02-11T14:55:27;103052.22;;;7.52;100.00
70015;BME280;57358;51.094;6.760;2023-02-11T14:58:30;103053.06;;;7.74;100.00
70015;BME280;57358;51.094;6.760;2023-02-11T15:01:03;103066.06;;;7.91;100.00
70015;BME280;57358;51.094;6.760;2023-02-11T15:03:36;103062.59;;;7.92;100.00
70015;BME280;57358;51.094;6.760;2023-02-11T15:06:18;103056.47;;;7.95;100.00
70015;BME280;57358;51.094;6.760;2023-02-11T15:08:58;103019.03;;;7.81;100.00
70015;BME280;57358;51.094;6.760;2023-02-11T15:11:32;103076.44;;;8.17;100.00
70015;BME280;57358;51.094;6.760;2023-02-11T15:14:16;103059.09;;;7.90;100.00
70015;BME280;57358;51.094;6.760;2023-02-11T15:16:45;103004.28;;;7.72;100.00
70015;BME280;57358;51.094;6.760;2023-02-11T15:19:20;103076.47;;;8.16;100.00
70015;BME280;57358;51.094;6.760;2023-02-11T15:21:48;103079.09;;;8.07;100.00
70015;BME280;57358;51.094;6.760;2023-02-11T15:27:00;102986.94;;;7.37;100.00